sensor_id;sensor_type;location;lat;lon;timestamp;P1;durP1;ratioP1;P2;durP2;ratioP2
38034;SDS011;23841;48.524;1.342;2022-10-16T00:02:13;4.63;;;0.70;;
38034;SDS011;23841;48.524;1.342;2022-10-16T00:04:38;1.63;;;0.63;;
38034;SDS011;23841;48.524;1.342;2022-10-16T00:07:03;0.98;;;0.60;;
38034;SDS011;23841;48.524;1.342;2022-10-16T00:09:29;1.33;;;0.68;;
38034;SDS011;23841;48.524;1.342;2022-10-16T00:11:54;1.85;;;0.60;;
38034;SDS011;23841;48.524;1.342;2022-10-16T00:14:19;1.83;;;0.50;;
38034;SDS011;23841;48.524;1.342;2022-10-16T00:16:44;2.38;;;0.57;;
38034;SDS011;23841;48.524;1.342;2022-10-16T00:19:10;1.65;;;0.55;;
38034;SDS011;23841;48.524;1.342;2022-10-16T00:21:37;1.42;;;0.63;;
38034;SDS011;23841;48.524;1.342;2022-10-16T00:24:03;1.70;;;0.52;;
38034;SDS011;23841;48.524;1.342;2022-10-16T00:26:30;1.35;;;0.63;;
38034;SDS011;23841;48.524;1.342;2022-10-16T00:28:56;0.88;;;0.47;;
38034;SDS011;23841;48.524;1.342;2022-10-16T00:31:21;1.83;;;0.70;;
38034;SDS011;23841;48.524;1.342;2022-10-16T00:33:47;2.63;;;0.63;;
38034;SDS011;23841;48.524;1.342;2022-10-16T00:36:14;1.90;;;0.52;;
38034;SDS011;23841;48.524;1.342;2022-10-16T00:38:39;2.35;;;0.85;;
38034;SDS011;23841;48.524;1.342;2022-10-16T00:41:05;0.82;;;0.50;;
38034;SDS011;23841;48.524;1.342;2022-10-16T00:43:32;2.38;;;0.47;;
38034;SDS011;23841;48.524;1.342;2022-10-16T00:45:58;0.73;;;0.57;;
38034;SDS011;23841;48.524;1.342;2022-10-16T00:48:24;0.90;;;0.40;;
38034;SDS011;23841;48.524;1.342;2022-10-16T00:50:49;2.28;;;0.68;;
38034;SDS011;23841;48.524;1.342;2022-10-16T00:53:14;0.77;;;0.57;;
38034;SDS011;23841;48.524;1.342;2022-10-16T00:55:41;2.65;;;0.68;;
38034;SDS011;23841;48.524;1.342;2022-10-16T00:58:06;0.95;;;0.45;;
38034;SDS011;23841;48.524;1.342;2022-10-16T01:00:31;3.28;;;0.60;;
38034;SDS011;23841;48.524;1.342;2022-10-16T01:02:58;0.80;;;0.45;;
38034;SDS011;23841;48.524;1.342;2022-10-16T01:05:29;2.78;;;0.60;;
38034;SDS011;23841;48.524;1.342;2022-10-16T01:10:40;0.90;;;0.47;;
38034;SDS011;23841;48.524;1.342;2022-10-16T01:13:10;2.05;;;0.60;;
38034;SDS011;23841;48.524;1.342;2022-10-16T01:15:47;0.73;;;0.50;;
38034;SDS011;23841;48.524;1.342;2022-10-16T01:18:34;0.50;;;0.40;;
38034;SDS011;23841;48.524;1.342;2022-10-16T01:21:03;1.13;;;0.73;;
38034;SDS011;23841;48.524;1.342;2022-10-16T01:29:04;1.40;;;0.70;;
38034;SDS011;23841;48.524;1.342;2022-10-16T01:31:32;1.95;;;0.50;;
38034;SDS011;23841;48.524;1.342;2022-10-16T01:36:28;1.88;;;0.65;;
38034;SDS011;23841;48.524;1.342;2022-10-16T01:38:56;1.38;;;0.60;;
38034;SDS011;23841;48.524;1.342;2022-10-16T01:41:27;1.65;;;0.50;;
38034;SDS011;23841;48.524;1.342;2022-10-16T01:46:20;1.00;;;0.60;;
38034;SDS011;23841;48.524;1.342;2022-10-16T01:48:47;1.25;;;0.63;;
38034;SDS011;23841;48.524;1.342;2022-10-16T01:51:14;1.00;;;0.38;;
38034;SDS011;23841;48.524;1.342;2022-10-16T01:53:40;1.45;;;0.40;;
38034;SDS011;23841;48.524;1.342;2022-10-16T01:56:07;1.67;;;0.50;;
38034;SDS011;23841;48.524;1.342;2022-10-16T01:58:34;1.80;;;0.45;;
38034;SDS011;23841;48.524;1.342;2022-10-16T02:01:00;1.40;;;0.60;;
38034;SDS011;23841;48.524;1.342;2022-10-16T02:03:26;1.02;;;0.40;;
38034;SDS011;23841;48.524;1.342;2022-10-16T02:05:52;1.45;;;0.68;;
38034;SDS011;23841;48.524;1.342;2022-10-16T02:08:19;1.15;;;0.52;;
38034;SDS011;23841;48.524;1.342;2022-10-16T02:10:44;1.58;;;0.98;;
38034;SDS011;23841;48.524;1.342;2022-10-16T02:13:21;0.55;;;0.45;;
38034;SDS011;23841;48.524;1.342;2022-10-16T02:15:47;1.40;;;0.60;;
38034;SDS011;23841;48.524;1.342;2022-10-16T02:18:13;2.08;;;0.60;;
38034;SDS011;23841;48.524;1.342;2022-10-16T02:20:44;1.48;;;0.50;;
38034;SDS011;23841;48.524;1.342;2022-10-16T02:23:12;1.50;;;0.70;;
38034;SDS011;23841;48.524;1.342;2022-10-16T02:25:40;2.55;;;0.50;;
38034;SDS011;23841;48.524;1.342;2022-10-16T02:28:08;4.15;;;0.63;;
38034;SDS011;23841;48.524;1.342;2022-10-16T02:30:45;1.58;;;0.60;;
38034;SDS011;23841;48.524;1.342;2022-10-16T02:33:13;0.95;;;0.60;;
38034;SDS011;23841;48.524;1.342;2022-10-16T02:35:39;1.52;;;0.60;;
38034;SDS011;23841;48.524;1.342;2022-10-16T02:38:05;1.80;;;0.40;;
38034;SDS011;23841;48.524;1.342;2022-10-16T02:40:31;0.82;;;0.60;;
38034;SDS011;23841;48.524;1.342;2022-10-16T02:42:56;1.65;;;0.60;;
38034;SDS011;23841;48.524;1.342;2022-10-16T02:45:22;1.52;;;0.52;;
38034;SDS011;23841;48.524;1.342;2022-10-16T02:47:47;0.77;;;0.50;;
38034;SDS011;23841;48.524;1.342;2022-10-16T02:50:13;0.63;;;0.43;;
38034;SDS011;23841;48.524;1.342;2022-10-16T02:52:39;1.30;;;0.80;;
38034;SDS011;23841;48.524;1.342;2022-10-16T02:55:04;1.88;;;0.70;;
38034;SDS011;23841;48.524;1.342;2022-10-16T02:57:30;1.85;;;0.70;;
38034;SDS011;23841;48.524;1.342;2022-10-16T02:59:56;1.83;;;0.70;;
38034;SDS011;23841;48.524;1.342;2022-10-16T03:02:22;1.63;;;0.60;;
38034;SDS011;23841;48.524;1.342;2022-10-16T03:04:47;0.55;;;0.30;;
38034;SDS011;23841;48.524;1.342;2022-10-16T03:07:12;1.38;;;0.60;;
38034;SDS011;23841;48.524;1.342;2022-10-16T03:09:38;1.58;;;0.50;;
38034;SDS011;23841;48.524;1.342;2022-10-16T03:12:03;0.90;;;0.57;;
38034;SDS011;23841;48.524;1.342;2022-10-16T03:14:28;1.58;;;0.60;;
38034;SDS011;23841;48.524;1.342;2022-10-16T03:16:54;1.48;;;0.40;;
38034;SDS011;23841;48.524;1.342;2022-10-16T03:19:19;1.42;;;0.43;;
38034;SDS011;23841;48.524;1.342;2022-10-16T03:21:44;1.27;;;0.52;;
38034;SDS011;23841;48.524;1.342;2022-10-16T03:24:10;0.90;;;0.50;;
38034;SDS011;23841;48.524;1.342;2022-10-16T03:26:35;2.15;;;0.75;;
38034;SDS011;23841;48.524;1.342;2022-10-16T03:29:01;2.65;;;0.68;;
38034;SDS011;23841;48.524;1.342;2022-10-16T03:31:28;1.33;;;0.47;;
38034;SDS011;23841;48.524;1.342;2022-10-16T03:33:53;1.27;;;0.47;;
38034;SDS011;23841;48.524;1.342;2022-10-16T03:36:19;0.80;;;0.40;;
38034;SDS011;23841;48.524;1.342;2022-10-16T03:38:44;1.30;;;0.50;;
38034;SDS011;23841;48.524;1.342;2022-10-16T03:41:10;0.95;;;0.45;;
38034;SDS011;23841;48.524;1.342;2022-10-16T03:43:35;1.10;;;0.50;;
38034;SDS011;23841;48.524;1.342;2022-10-16T03:46:00;2.78;;;0.68;;
38034;SDS011;23841;48.524;1.342;2022-10-16T03:48:26;2.63;;;0.60;;
38034;SDS011;23841;48.524;1.342;2022-10-16T03:50:51;1.23;;;0.40;;
38034;SDS011;23841;48.524;1.342;2022-10-16T03:53:18;2.50;;;0.60;;
38034;SDS011;23841;48.524;1.342;2022-10-16T03:55:44;1.75;;;0.50;;
38034;SDS011;23841;48.524;1.342;2022-10-16T03:58:09;0.55;;;0.40;;
38034;SDS011;23841;48.524;1.342;2022-10-16T04:00:34;1.05;;;0.40;;
38034;SDS011;23841;48.524;1.342;2022-10-16T04:03:00;0.65;;;0.32;;
38034;SDS011;23841;48.524;1.342;2022-10-16T04:05:25;0.65;;;0.40;;
38034;SDS011;23841;48.524;1.342;2022-10-16T04:07:51;0.68;;;0.47;;
38034;SDS011;23841;48.524;1.342;2022-10-16T04:10:16;1.70;;;0.50;;
38034;SDS011;23841;48.524;1.342;2022-10-16T04:12:41;1.48;;;0.93;;
38034;SDS011;23841;48.524;1.342;2022-10-16T04:15:07;0.45;;;0.40;;
38034;SDS011;23841;48.524;1.342;2022-10-16T04:17:32;0.90;;;0.50;;
38034;SDS011;23841;48.524;1.342;2022-10-16T04:19:58;0.85;;;0.50;;
38034;SDS011;23841;48.524;1.342;2022-10-16T04:22:24;0.95;;;0.52;;
38034;SDS011;23841;48.524;1.342;2022-10-16T04:24:49;1.67;;;0.60;;
38034;SDS011;23841;48.524;1.342;2022-10-16T04:27:14;0.68;;;0.40;;
38034;SDS011;23841;48.524;1.342;2022-10-16T04:29:40;0.65;;;0.50;;
38034;SDS011;23841;48.524;1.342;2022-10-16T04:32:05;2.65;;;0.65;;
38034;SDS011;23841;48.524;1.342;2022-10-16T04:34:32;0.70;;;0.45;;
38034;SDS011;23841;48.524;1.342;2022-10-16T04:36:58;3.53;;;1.23;;
38034;SDS011;23841;48.524;1.342;2022-10-16T04:39:23;1.70;;;0.70;;
38034;SDS011;23841;48.524;1.342;2022-10-16T04:41:48;1.45;;;0.40;;
38034;SDS011;23841;48.524;1.342;2022-10-16T04:44:14;1.27;;;0.40;;
38034;SDS011;23841;48.524;1.342;2022-10-16T04:46:39;0.85;;;0.40;;
38034;SDS011;23841;48.524;1.342;2022-10-16T04:49:04;0.30;;;0.30;;
38034;SDS011;23841;48.524;1.342;2022-10-16T04:51:30;0.60;;;0.43;;
38034;SDS011;23841;48.524;1.342;2022-10-16T04:53:55;0.77;;;0.43;;
38034;SDS011;23841;48.524;1.342;2022-10-16T04:56:21;1.98;;;0.43;;
38034;SDS011;23841;48.524;1.342;2022-10-16T04:58:46;1.10;;;0.60;;
38034;SDS011;23841;48.524;1.342;2022-10-16T05:01:12;0.57;;;0.35;;
38034;SDS011;23841;48.524;1.342;2022-10-16T05:03:37;1.10;;;0.50;;
38034;SDS011;23841;48.524;1.342;2022-10-16T05:06:04;0.90;;;0.50;;
38034;SDS011;23841;48.524;1.342;2022-10-16T05:08:30;0.73;;;0.38;;
38034;SDS011;23841;48.524;1.342;2022-10-16T05:10:55;0.65;;;0.40;;
38034;SDS011;23841;48.524;1.342;2022-10-16T05:13:20;1.33;;;0.50;;
38034;SDS011;23841;48.524;1.342;2022-10-16T05:15:47;0.98;;;0.50;;
38034;SDS011;23841;48.524;1.342;2022-10-16T05:18:13;1.77;;;0.57;;
38034;SDS011;23841;48.524;1.342;2022-10-16T05:20:38;1.75;;;0.40;;
38034;SDS011;23841;48.524;1.342;2022-10-16T05:23:03;1.02;;;0.30;;
38034;SDS011;23841;48.524;1.342;2022-10-16T05:25:28;1.40;;;0.50;;
38034;SDS011;23841;48.524;1.342;2022-10-16T05:27:54;0.63;;;0.35;;
38034;SDS011;23841;48.524;1.342;2022-10-16T05:30:19;2.30;;;0.57;;
38034;SDS011;23841;48.524;1.342;2022-10-16T05:32:48;0.82;;;0.70;;
38034;SDS011;23841;48.524;1.342;2022-10-16T05:35:14;1.10;;;0.60;;
38034;SDS011;23841;48.524;1.342;2022-10-16T05:37:39;0.38;;;0.30;;
38034;SDS011;23841;48.524;1.342;2022-10-16T05:40:04;1.45;;;0.45;;
38034;SDS011;23841;48.524;1.342;2022-10-16T05:42:31;2.15;;;0.47;;
38034;SDS011;23841;48.524;1.342;2022-10-16T05:44:56;0.75;;;0.45;;
38034;SDS011;23841;48.524;1.342;2022-10-16T05:47:22;0.82;;;0.40;;
38034;SDS011;23841;48.524;1.342;2022-10-16T05:49:47;0.43;;;0.40;;
38034;SDS011;23841;48.524;1.342;2022-10-16T05:52:12;0.95;;;0.50;;
38034;SDS011;23841;48.524;1.342;2022-10-16T05:54:38;1.33;;;0.52;;
38034;SDS011;23841;48.524;1.342;2022-10-16T05:57:03;0.70;;;0.32;;
38034;SDS011;23841;48.524;1.342;2022-10-16T05:59:30;0.85;;;0.40;;
38034;SDS011;23841;48.524;1.342;2022-10-16T06:01:55;0.55;;;0.30;;
38034;SDS011;23841;48.524;1.342;2022-10-16T06:04:21;0.82;;;0.50;;
38034;SDS011;23841;48.524;1.342;2022-10-16T06:06:46;1.05;;;0.60;;
38034;SDS011;23841;48.524;1.342;2022-10-16T06:09:11;0.55;;;0.50;;
38034;SDS011;23841;48.524;1.342;2022-10-16T06:11:36;0.40;;;0.30;;
38034;SDS011;23841;48.524;1.342;2022-10-16T06:14:02;0.93;;;0.50;;
38034;SDS011;23841;48.524;1.342;2022-10-16T06:16:31;0.63;;;0.40;;
38034;SDS011;23841;48.524;1.342;2022-10-16T06:18:56;0.57;;;0.43;;
38034;SDS011;23841;48.524;1.342;2022-10-16T06:21:23;1.52;;;0.50;;
38034;SDS011;23841;48.524;1.342;2022-10-16T06:23:52;0.52;;;0.28;;
38034;SDS011;23841;48.524;1.342;2022-10-16T06:26:19;0.60;;;0.40;;
38034;SDS011;23841;48.524;1.342;2022-10-16T06:28:45;0.60;;;0.40;;
38034;SDS011;23841;48.524;1.342;2022-10-16T06:31:10;1.48;;;0.60;;
38034;SDS011;23841;48.524;1.342;2022-10-16T06:33:36;0.40;;;0.22;;
38034;SDS011;23841;48.524;1.342;2022-10-16T06:36:02;0.47;;;0.32;;
38034;SDS011;23841;48.524;1.342;2022-10-16T06:38:28;0.77;;;0.40;;
38034;SDS011;23841;48.524;1.342;2022-10-16T06:40:53;0.30;;;0.30;;
38034;SDS011;23841;48.524;1.342;2022-10-16T06:43:18;0.82;;;0.40;;
38034;SDS011;23841;48.524;1.342;2022-10-16T06:45:49;0.65;;;0.40;;
38034;SDS011;23841;48.524;1.342;2022-10-16T06:48:15;2.40;;;0.52;;
38034;SDS011;23841;48.524;1.342;2022-10-16T06:50:40;0.73;;;0.40;;
38034;SDS011;23841;48.524;1.342;2022-10-16T06:53:05;1.75;;;0.35;;
38034;SDS011;23841;48.524;1.342;2022-10-16T06:55:30;2.53;;;0.65;;
38034;SDS011;23841;48.524;1.342;2022-10-16T06:57:56;0.65;;;0.40;;
38034;SDS011;23841;48.524;1.342;2022-10-16T07:00:21;0.65;;;0.40;;
38034;SDS011;23841;48.524;1.342;2022-10-16T07:02:46;1.73;;;0.35;;
38034;SDS011;23841;48.524;1.342;2022-10-16T07:05:11;0.45;;;0.30;;
38034;SDS011;23841;48.524;1.342;2022-10-16T07:07:36;0.75;;;0.47;;
38034;SDS011;23841;48.524;1.342;2022-10-16T07:10:02;0.65;;;0.47;;
38034;SDS011;23841;48.524;1.342;2022-10-16T07:12:27;0.52;;;0.45;;
38034;SDS011;23841;48.524;1.342;2022-10-16T07:14:52;1.63;;;0.57;;
38034;SDS011;23841;48.524;1.342;2022-10-16T07:17:19;1.50;;;0.55;;
38034;SDS011;23841;48.524;1.342;2022-10-16T07:19:44;1.17;;;0.35;;
38034;SDS011;23841;48.524;1.342;2022-10-16T07:22:10;0.70;;;0.50;;
38034;SDS011;23841;48.524;1.342;2022-10-16T07:24:35;2.05;;;0.50;;
38034;SDS011;23841;48.524;1.342;2022-10-16T07:27:03;1.80;;;0.75;;
38034;SDS011;23841;48.524;1.342;2022-10-16T07:29:28;0.32;;;0.32;;
38034;SDS011;23841;48.524;1.342;2022-10-16T07:31:54;0.70;;;0.47;;
38034;SDS011;23841;48.524;1.342;2022-10-16T07:34:19;0.63;;;0.40;;
38034;SDS011;23841;48.524;1.342;2022-10-16T07:36:49;1.15;;;0.50;;
38034;SDS011;23841;48.524;1.342;2022-10-16T07:39:15;1.38;;;0.50;;
38034;SDS011;23841;48.524;1.342;2022-10-16T07:41:41;3.47;;;0.60;;
38034;SDS011;23841;48.524;1.342;2022-10-16T07:44:06;0.57;;;0.30;;
38034;SDS011;23841;48.524;1.342;2022-10-16T07:46:31;1.52;;;0.35;;
38034;SDS011;23841;48.524;1.342;2022-10-16T07:48:58;0.90;;;0.40;;
38034;SDS011;23841;48.524;1.342;2022-10-16T07:51:24;1.55;;;0.60;;
38034;SDS011;23841;48.524;1.342;2022-10-16T07:53:49;0.80;;;0.43;;
38034;SDS011;23841;48.524;1.342;2022-10-16T07:56:16;0.80;;;0.50;;
38034;SDS011;23841;48.524;1.342;2022-10-16T07:58:41;1.42;;;0.70;;
38034;SDS011;23841;48.524;1.342;2022-10-16T08:01:08;3.00;;;0.47;;
38034;SDS011;23841;48.524;1.342;2022-10-16T08:03:34;6.20;;;0.50;;
38034;SDS011;23841;48.524;1.342;2022-10-16T08:05:59;0.68;;;0.40;;
38034;SDS011;23841;48.524;1.342;2022-10-16T08:08:25;2.00;;;0.50;;
38034;SDS011;23841;48.524;1.342;2022-10-16T08:10:51;10.55;;;1.02;;
38034;SDS011;23841;48.524;1.342;2022-10-16T08:13:16;3.80;;;0.50;;
38034;SDS011;23841;48.524;1.342;2022-10-16T08:15:42;0.90;;;0.50;;
38034;SDS011;23841;48.524;1.342;2022-10-16T08:18:09;1.00;;;0.40;;
38034;SDS011;23841;48.524;1.342;2022-10-16T08:20:34;2.45;;;0.50;;
38034;SDS011;23841;48.524;1.342;2022-10-16T08:23:00;1.05;;;0.50;;
38034;SDS011;23841;48.524;1.342;2022-10-16T08:25:25;1.45;;;0.45;;
38034;SDS011;23841;48.524;1.342;2022-10-16T08:27:51;0.75;;;0.40;;
38034;SDS011;23841;48.524;1.342;2022-10-16T08:30:20;0.63;;;0.50;;
38034;SDS011;23841;48.524;1.342;2022-10-16T08:32:46;1.83;;;0.65;;
38034;SDS011;23841;48.524;1.342;2022-10-16T08:35:12;2.67;;;0.50;;
38034;SDS011;23841;48.524;1.342;2022-10-16T08:37:38;1.67;;;0.50;;
38034;SDS011;23841;48.524;1.342;2022-10-16T08:40:05;2.15;;;0.77;;
38034;SDS011;23841;48.524;1.342;2022-10-16T08:47:51;2.72;;;1.02;;
38034;SDS011;23841;48.524;1.342;2022-10-16T08:50:24;3.13;;;0.70;;
38034;SDS011;23841;48.524;1.342;2022-10-16T08:52:50;2.35;;;0.32;;
38034;SDS011;23841;48.524;1.342;2022-10-16T08:55:58;1.75;;;0.50;;
38034;SDS011;23841;48.524;1.342;2022-10-16T08:58:10;2.15;;;0.50;;
38034;SDS011;23841;48.524;1.342;2022-10-16T09:00:36;1.98;;;0.70;;
38034;SDS011;23841;48.524;1.342;2022-10-16T09:13:29;0.70;;;0.40;;
38034;SDS011;23841;48.524;1.342;2022-10-16T09:18:38;0.82;;;0.43;;
38034;SDS011;23841;48.524;1.342;2022-10-16T09:21:10;0.85;;;0.50;;
38034;SDS011;23841;48.524;1.342;2022-10-16T09:23:38;0.55;;;0.38;;
38034;SDS011;23841;48.524;1.342;2022-10-16T09:26:03;1.20;;;0.55;;
38034;SDS011;23841;48.524;1.342;2022-10-16T09:28:30;1.73;;;0.40;;
38034;SDS011;23841;48.524;1.342;2022-10-16T09:30:55;0.45;;;0.40;;
38034;SDS011;23841;48.524;1.342;2022-10-16T09:33:22;1.50;;;0.63;;
38034;SDS011;23841;48.524;1.342;2022-10-16T09:35:49;1.35;;;0.40;;
38034;SDS011;23841;48.524;1.342;2022-10-16T09:38:25;2.35;;;0.50;;
38034;SDS011;23841;48.524;1.342;2022-10-16T09:40:53;0.60;;;0.30;;
38034;SDS011;23841;48.524;1.342;2022-10-16T09:43:35;1.25;;;0.50;;
38034;SDS011;23841;48.524;1.342;2022-10-16T09:46:05;2.53;;;0.40;;
38034;SDS011;23841;48.524;1.342;2022-10-16T09:48:36;2.70;;;0.40;;
38034;SDS011;23841;48.524;1.342;2022-10-16T09:51:02;0.52;;;0.40;;
38034;SDS011;23841;48.524;1.342;2022-10-16T09:53:46;0.40;;;0.25;;
38034;SDS011;23841;48.524;1.342;2022-10-16T09:56:20;0.52;;;0.38;;
38034;SDS011;23841;48.524;1.342;2022-10-16T09:58:53;0.35;;;0.28;;
38034;SDS011;23841;48.524;1.342;2022-10-16T10:01:19;0.40;;;0.22;;
38034;SDS011;23841;48.524;1.342;2022-10-16T10:03:46;2.17;;;0.47;;
38034;SDS011;23841;48.524;1.342;2022-10-16T10:06:27;1.17;;;0.40;;
38034;SDS011;23841;48.524;1.342;2022-10-16T10:08:57;1.80;;;0.65;;
38034;SDS011;23841;48.524;1.342;2022-10-16T10:14:35;4.18;;;0.60;;
38034;SDS011;23841;48.524;1.342;2022-10-16T10:19:27;0.30;;;0.30;;
38034;SDS011;23841;48.524;1.342;2022-10-16T10:21:52;1.58;;;0.40;;
38034;SDS011;23841;48.524;1.342;2022-10-16T10:24:18;1.65;;;0.55;;
38034;SDS011;23841;48.524;1.342;2022-10-16T10:26:46;1.63;;;0.40;;
38034;SDS011;23841;48.524;1.342;2022-10-16T10:37:51;1.35;;;0.40;;
38034;SDS011;23841;48.524;1.342;2022-10-16T10:40:03;3.17;;;0.60;;
38034;SDS011;23841;48.524;1.342;2022-10-16T10:42:37;1.05;;;0.40;;
38034;SDS011;23841;48.524;1.342;2022-10-16T10:45:17;1.73;;;0.65;;
38034;SDS011;23841;48.524;1.342;2022-10-16T10:55:29;0.77;;;0.60;;
38034;SDS011;23841;48.524;1.342;2022-10-16T11:00:37;0.83;;;0.43;;
38034;SDS011;23841;48.524;1.342;2022-10-16T11:05:39;1.10;;;0.50;;
38034;SDS011;23841;48.524;1.342;2022-10-16T11:08:14;0.95;;;0.47;;
38034;SDS011;23841;48.524;1.342;2022-10-16T11:14:16;1.35;;;0.50;;
38034;SDS011;23841;48.524;1.342;2022-10-16T11:18:58;2.75;;;0.40;;
38034;SDS011;23841;48.524;1.342;2022-10-16T11:21:24;2.38;;;0.57;;
38034;SDS011;23841;48.524;1.342;2022-10-16T11:23:53;1.15;;;0.45;;
38034;SDS011;23841;48.524;1.342;2022-10-16T11:26:23;0.45;;;0.30;;
38034;SDS011;23841;48.524;1.342;2022-10-16T11:28:50;1.35;;;0.40;;
38034;SDS011;23841;48.524;1.342;2022-10-16T11:31:17;0.65;;;0.50;;
38034;SDS011;23841;48.524;1.342;2022-10-16T11:33:46;1.52;;;0.47;;
38034;SDS011;23841;48.524;1.342;2022-10-16T11:41:15;0.70;;;0.43;;
38034;SDS011;23841;48.524;1.342;2022-10-16T11:43:46;1.10;;;0.70;;
38034;SDS011;23841;48.524;1.342;2022-10-16T11:46:15;1.40;;;0.60;;
38034;SDS011;23841;48.524;1.342;2022-10-16T11:48:57;2.70;;;0.63;;
38034;SDS011;23841;48.524;1.342;2022-10-16T11:56:28;1.25;;;0.63;;
38034;SDS011;23841;48.524;1.342;2022-10-16T11:59:05;1.17;;;0.57;;
38034;SDS011;23841;48.524;1.342;2022-10-16T12:01:33;0.30;;;0.30;;
38034;SDS011;23841;48.524;1.342;2022-10-16T12:04:05;1.00;;;0.52;;
38034;SDS011;23841;48.524;1.342;2022-10-16T12:08:58;0.57;;;0.40;;
38034;SDS011;23841;48.524;1.342;2022-10-16T12:14:03;2.13;;;0.60;;
38034;SDS011;23841;48.524;1.342;2022-10-16T12:16:29;0.50;;;0.50;;
38034;SDS011;23841;48.524;1.342;2022-10-16T12:19:14;0.70;;;0.50;;
38034;SDS011;23841;48.524;1.342;2022-10-16T12:21:40;0.73;;;0.73;;
38034;SDS011;23841;48.524;1.342;2022-10-16T12:24:05;0.45;;;0.30;;
38034;SDS011;23841;48.524;1.342;2022-10-16T12:26:32;0.88;;;0.50;;
38034;SDS011;23841;48.524;1.342;2022-10-16T12:29:13;0.47;;;0.40;;
38034;SDS011;23841;48.524;1.342;2022-10-16T12:31:44;0.98;;;0.28;;
38034;SDS011;23841;48.524;1.342;2022-10-16T12:34:24;0.85;;;0.47;;
38034;SDS011;23841;48.524;1.342;2022-10-16T12:36:52;0.30;;;0.30;;
38034;SDS011;23841;48.524;1.342;2022-10-16T12:39:22;0.32;;;0.20;;
38034;SDS011;23841;48.524;1.342;2022-10-16T12:41:48;0.75;;;0.35;;
38034;SDS011;23841;48.524;1.342;2022-10-16T12:44:25;0.35;;;0.30;;
38034;SDS011;23841;48.524;1.342;2022-10-16T12:46:53;1.33;;;0.40;;
38034;SDS011;23841;48.524;1.342;2022-10-16T12:49:23;0.47;;;0.30;;
38034;SDS011;23841;48.524;1.342;2022-10-16T12:51:54;1.13;;;0.50;;
38034;SDS011;23841;48.524;1.342;2022-10-16T12:54:35;0.43;;;0.43;;
38034;SDS011;23841;48.524;1.342;2022-10-16T12:59:55;1.33;;;0.70;;
38034;SDS011;23841;48.524;1.342;2022-10-16T13:17:25;2.75;;;0.90;;
38034;SDS011;23841;48.524;1.342;2022-10-16T13:19:56;2.75;;;1.17;;
38034;SDS011;23841;48.524;1.342;2022-10-16T13:22:38;1.58;;;0.98;;
38034;SDS011;23841;48.524;1.342;2022-10-16T13:27:57;1.75;;;0.73;;
38034;SDS011;23841;48.524;1.342;2022-10-16T13:30:25;2.42;;;1.00;;
38034;SDS011;23841;48.524;1.342;2022-10-16T13:32:57;1.95;;;1.10;;
38034;SDS011;23841;48.524;1.342;2022-10-16T13:35:24;1.52;;;1.00;;
38034;SDS011;23841;48.524;1.342;2022-10-16T13:37:50;2.60;;;1.10;;
38034;SDS011;23841;48.524;1.342;2022-10-16T13:40:22;2.50;;;1.20;;
38034;SDS011;23841;48.524;1.342;2022-10-16T13:42:47;1.83;;;1.10;;
38034;SDS011;23841;48.524;1.342;2022-10-16T13:45:17;2.03;;;1.02;;
38034;SDS011;23841;48.524;1.342;2022-10-16T13:47:42;3.95;;;1.40;;
38034;SDS011;23841;48.524;1.342;2022-10-16T13:50:12;2.05;;;0.98;;
38034;SDS011;23841;48.524;1.342;2022-10-16T13:52:37;2.30;;;1.40;;
38034;SDS011;23841;48.524;1.342;2022-10-16T13:55:13;1.60;;;1.05;;
38034;SDS011;23841;48.524;1.342;2022-10-16T13:57:38;2.65;;;1.20;;
38034;SDS011;23841;48.524;1.342;2022-10-16T14:00:16;2.13;;;1.27;;
38034;SDS011;23841;48.524;1.342;2022-10-16T14:02:42;3.10;;;1.30;;
38034;SDS011;23841;48.524;1.342;2022-10-16T14:05:08;1.85;;;1.08;;
38034;SDS011;23841;48.524;1.342;2022-10-16T14:07:35;1.95;;;1.20;;
38034;SDS011;23841;48.524;1.342;2022-10-16T14:10:02;2.00;;;1.10;;
38034;SDS011;23841;48.524;1.342;2022-10-16T14:12:27;1.80;;;1.25;;
38034;SDS011;23841;48.524;1.342;2022-10-16T14:14:53;2.63;;;1.40;;
38034;SDS011;23841;48.524;1.342;2022-10-16T14:17:22;3.00;;;1.05;;
38034;SDS011;23841;48.524;1.342;2022-10-16T14:19:50;1.48;;;1.08;;
38034;SDS011;23841;48.524;1.342;2022-10-16T14:22:29;2.50;;;1.45;;
38034;SDS011;23841;48.524;1.342;2022-10-16T14:24:55;3.20;;;1.55;;
38034;SDS011;23841;48.524;1.342;2022-10-16T14:27:23;2.47;;;1.60;;
38034;SDS011;23841;48.524;1.342;2022-10-16T14:29:50;3.00;;;1.83;;
38034;SDS011;23841;48.524;1.342;2022-10-16T14:32:22;2.63;;;1.40;;
38034;SDS011;23841;48.524;1.342;2022-10-16T14:34:52;2.70;;;1.60;;
38034;SDS011;23841;48.524;1.342;2022-10-16T14:39:51;2.60;;;1.42;;
38034;SDS011;23841;48.524;1.342;2022-10-16T14:42:17;5.18;;;1.80;;
38034;SDS011;23841;48.524;1.342;2022-10-16T14:44:44;2.35;;;1.60;;
38034;SDS011;23841;48.524;1.342;2022-10-16T14:47:13;2.88;;;1.70;;
38034;SDS011;23841;48.524;1.342;2022-10-16T14:49:39;3.03;;;1.60;;
38034;SDS011;23841;48.524;1.342;2022-10-16T14:52:10;3.28;;;1.65;;
38034;SDS011;23841;48.524;1.342;2022-10-16T14:54:36;3.95;;;1.63;;
38034;SDS011;23841;48.524;1.342;2022-10-16T14:57:03;4.15;;;1.90;;
38034;SDS011;23841;48.524;1.342;2022-10-16T14:59:37;2.90;;;1.65;;
38034;SDS011;23841;48.524;1.342;2022-10-16T15:04:41;2.90;;;1.90;;
38034;SDS011;23841;48.524;1.342;2022-10-16T15:07:07;3.05;;;1.88;;
38034;SDS011;23841;48.524;1.342;2022-10-16T15:09:32;2.83;;;2.00;;
38034;SDS011;23841;48.524;1.342;2022-10-16T15:11:58;4.00;;;1.88;;
38034;SDS011;23841;48.524;1.342;2022-10-16T15:14:23;2.67;;;1.70;;
38034;SDS011;23841;48.524;1.342;2022-10-16T15:16:48;3.45;;;2.05;;
38034;SDS011;23841;48.524;1.342;2022-10-16T15:19:13;4.82;;;2.20;;
38034;SDS011;23841;48.524;1.342;2022-10-16T15:21:39;2.75;;;1.85;;
38034;SDS011;23841;48.524;1.342;2022-10-16T15:24:07;2.95;;;1.83;;
38034;SDS011;23841;48.524;1.342;2022-10-16T15:26:33;2.80;;;1.95;;
38034;SDS011;23841;48.524;1.342;2022-10-16T15:28:59;2.50;;;1.83;;
38034;SDS011;23841;48.524;1.342;2022-10-16T15:31:24;2.95;;;1.80;;
38034;SDS011;23841;48.524;1.342;2022-10-16T15:33:50;3.60;;;1.77;;
38034;SDS011;23841;48.524;1.342;2022-10-16T15:36:28;3.05;;;2.05;;
38034;SDS011;23841;48.524;1.342;2022-10-16T15:38:53;2.38;;;1.80;;
38034;SDS011;23841;48.524;1.342;2022-10-16T15:41:19;3.22;;;2.08;;
38034;SDS011;23841;48.524;1.342;2022-10-16T15:43:45;4.40;;;2.33;;
38034;SDS011;23841;48.524;1.342;2022-10-16T15:46:13;3.38;;;2.10;;
38034;SDS011;23841;48.524;1.342;2022-10-16T15:48:39;5.57;;;2.00;;
38034;SDS011;23841;48.524;1.342;2022-10-16T15:51:05;6.90;;;2.30;;
38034;SDS011;23841;48.524;1.342;2022-10-16T15:53:30;4.35;;;2.30;;
38034;SDS011;23841;48.524;1.342;2022-10-16T15:55:57;4.07;;;2.10;;
38034;SDS011;23841;48.524;1.342;2022-10-16T15:58:22;2.58;;;1.90;;
38034;SDS011;23841;48.524;1.342;2022-10-16T16:00:57;3.58;;;2.03;;
38034;SDS011;23841;48.524;1.342;2022-10-16T16:03:25;3.78;;;2.13;;
38034;SDS011;23841;48.524;1.342;2022-10-16T16:05:51;4.13;;;2.38;;
38034;SDS011;23841;48.524;1.342;2022-10-16T16:08:16;4.38;;;2.08;;
38034;SDS011;23841;48.524;1.342;2022-10-16T16:10:41;2.33;;;1.73;;
38034;SDS011;23841;48.524;1.342;2022-10-16T16:13:07;4.60;;;2.03;;
38034;SDS011;23841;48.524;1.342;2022-10-16T16:15:32;3.22;;;2.30;;
38034;SDS011;23841;48.524;1.342;2022-10-16T16:17:57;3.42;;;2.03;;
38034;SDS011;23841;48.524;1.342;2022-10-16T16:20:23;5.10;;;2.85;;
38034;SDS011;23841;48.524;1.342;2022-10-16T16:22:48;2.80;;;2.00;;
38034;SDS011;23841;48.524;1.342;2022-10-16T16:25:14;3.55;;;2.00;;
38034;SDS011;23841;48.524;1.342;2022-10-16T16:27:39;3.42;;;2.25;;
38034;SDS011;23841;48.524;1.342;2022-10-16T16:30:08;3.33;;;1.90;;
38034;SDS011;23841;48.524;1.342;2022-10-16T16:32:34;5.63;;;1.98;;
38034;SDS011;23841;48.524;1.342;2022-10-16T16:35:00;3.95;;;2.03;;